Time;durP1;ratioP1;P1;durP2;ratioP2;P2;SDS_P1;SDS_P2;PMS_P1;PMS_P2;Temp;Humidity;BMP_temperature;BMP_pressure;BME280_temperature;BME280_humidity;BME280_pressure;Samples;Min_cycle;Max_cycle;Signal;HPM_P1;HPM_P2
2023/05/24 00:00:36;;;;;;;;;3.00;0.00;;;;;22.20;29.17;102345.00;6304761;22;45236;-73
2023/05/24 00:03:03;;;;;;;;;1.00;1.00;;;;;22.24;28.66;102359.66;6304286;22;46214;-74
2023/05/24 00:05:29;;;;;;;;;2.33;1.00;;;;;22.19;29.19;102348.66;6304493;22;45317;-74
2023/05/24 00:07:55;;;;;;;;;0.00;0.00;;;;;22.18;28.92;102352.28;6302307;22;45340;-74
2023/05/24 00:10:21;;;;;;;;;3.33;0.67;;;;;22.07;28.72;102334.72;6304937;22;45272;-74
2023/05/24 00:12:46;;;;;;;;;1.00;1.00;;;;;22.08;29.14;102341.72;6304221;22;46836;-74
2023/05/24 00:15:11;;;;;;;;;1.00;1.00;;;;;22.09;29.00;102343.41;6304780;22;45332;-74
2023/05/24 00:17:39;;;;;;;;;2.00;0.00;;;;;21.97;28.41;102321.50;6304638;22;45279;-74
2023/05/24 00:20:13;;;;;;;;;1.00;0.00;;;;;22.03;28.93;102336.00;6304819;22;45426;-74
2023/05/24 00:22:38;;;;;;;;;0.67;0.67;;;;;22.09;29.08;102351.34;6303653;22;46439;-74
2023/05/24 00:25:04;;;;;;;;;0.33;0.33;;;;;22.06;29.06;102344.53;6304702;22;45209;-74
2023/05/24 00:27:30;;;;;;;;;0.33;0.33;;;;;22.05;28.95;102334.88;6304974;22;45210;-73
2023/05/24 00:29:55;;;;;;;;;1.33;0.00;;;;;22.04;28.53;102338.50;6304728;22;45260;-74
2023/05/24 00:32:21;;;;;;;;;3.00;0.00;;;;;22.04;28.49;102348.28;6304699;22;45220;-73
2023/05/24 00:34:46;;;;;;;;;1.00;1.00;;;;;21.84;28.72;102319.13;6304280;22;45198;-74
2023/05/24 00:37:11;;;;;;;;;2.00;0.00;;;;;22.01;28.91;102343.28;6304467;22;45335;-74
2023/05/24 00:39:37;;;;;;;;;0.00;0.00;;;;;21.99;28.49;102332.78;6304253;22;45432;-74
2023/05/24 00:42:03;;;;;;;;;1.00;1.00;;;;;21.98;29.00;102331.16;6304596;22;45552;-72
2023/05/24 00:44:28;;;;;;;;;1.33;0.67;;;;;21.94;28.89;102322.63;6304458;22;45379;-73
2023/05/24 00:46:54;;;;;;;;;1.00;1.00;;;;;21.92;29.06;102315.81;6303987;22;45389;-74
2023/05/24 00:49:21;;;;;;;;;1.00;1.00;;;;;21.78;29.14;102306.47;6304654;22;45178;-74
2023/05/24 00:51:47;;;;;;;;;0.67;0.67;;;;;21.89;28.95;102331.97;6303989;22;46218;-74
2023/05/24 00:54:13;;;;;;;;;3.33;0.67;;;;;21.81;29.29;102316.78;6304321;22;45348;-74
2023/05/24 00:56:41;;;;;;;;;3.67;1.67;;;;;21.74;29.13;102308.56;6304671;22;45209;-73
2023/05/24 00:59:06;;;;;;;;;1.00;1.00;;;;;21.80;28.96;102317.75;6304178;22;45486;-74
2023/05/24 01:01:31;;;;;;;;;0.67;0.00;;;;;21.81;29.44;102322.06;6305175;22;45998;-73
2023/05/24 01:03:58;;;;;;;;;1.33;0.00;;;;;21.73;29.06;102313.03;6305649;22;45315;-74
2023/05/24 01:06:25;;;;;;;;;1.33;1.00;;;;;21.76;29.13;102319.00;6305258;22;45505;-74
2023/05/24 01:09:03;;;;;;;;;1.33;0.33;;;;;21.73;29.47;102323.63;6305853;22;45407;-73
2023/05/24 01:11:44;;;;;;;;;4.00;1.00;;;;;21.72;29.17;102319.31;6305567;22;45176;-74
2023/05/24 01:14:35;;;;;;;;;1.00;1.00;;;;;21.51;29.31;102291.19;6305218;22;45323;-74
2023/05/24 01:17:35;;;;;;;;;0.00;0.00;;;;;21.62;29.34;102310.56;6305326;22;45288;-74
2023/05/24 01:20:08;;;;;;;;;0.00;0.00;;;;;21.70;29.64;102328.38;6179256;23;45291;-73
2023/05/24 01:22:58;;;;;;;;;1.00;1.00;;;;;21.68;29.69;102322.38;6179160;23;46526;-74
2023/05/24 01:25:48;;;;;;;;;0.67;0.67;;;;;21.65;29.35;102320.03;6180145;23;45445;-73
2023/05/24 01:28:19;;;;;;;;;0.00;0.00;;;;;21.63;29.68;102325.44;6179640;23;45411;-74
2023/05/24 01:30:45;;;;;;;;;2.00;1.00;;;;;21.53;29.37;102322.81;6179829;23;45409;-74
2023/05/24 01:33:11;;;;;;;;;3.00;1.00;;;;;21.59;29.82;102326.72;6179556;23;45865;-76
2023/05/24 01:35:40;;;;;;;;;1.00;1.00;;;;;21.50;29.88;102316.00;6179893;23;45607;-74
2023/05/24 01:38:06;;;;;;;;;0.67;0.00;;;;;21.58;29.47;102332.97;6179552;23;45398;-74
2023/05/24 01:40:32;;;;;;;;;1.33;0.00;;;;;21.58;29.86;102332.97;6180026;23;45398;-74
2023/05/24 01:43:13;;;;;;;;;1.67;1.00;;;;;21.46;29.80;102317.25;6178985;23;45470;-73
2023/05/24 01:45:56;;;;;;;;;5.33;1.00;;;;;21.56;29.66;102333.13;6179791;23;45303;-74
2023/05/24 01:48:52;;;;;;;;;1.33;0.33;;;;;21.55;29.55;102330.59;6179003;23;45380;-73
2023/05/24 01:51:22;;;;;;;;;0.00;0.00;;;;;21.47;29.76;102329.50;6179615;23;45461;-73
2023/05/24 01:53:51;;;;;;;;;0.00;0.00;;;;;21.54;29.54;102340.38;6179493;23;45373;-73
2023/05/24 01:56:19;;;;;;;;;1.33;0.00;;;;;21.50;29.81;102336.34;6220428;22;45275;-73
2023/05/24 01:58:46;;;;;;;;;1.00;1.00;;;;;21.50;30.12;102331.88;6305028;22;45295;-73
2023/05/24 02:01:14;;;;;;;;;1.33;1.00;;;;;21.38;29.86;102317.97;6305070;22;45374;-74
2023/05/24 02:03:40;;;;;;;;;1.00;1.00;;;;;21.47;30.09;102333.97;6304743;22;46033;-74
2023/05/24 02:06:06;;;;;;;;;2.33;2.00;;;;;21.36;30.13;102322.56;6305352;22;45266;-73
2023/05/24 02:08:32;;;;;;;;;1.67;1.33;;;;;21.18;29.79;102290.66;6304571;22;45243;-74
2023/05/24 02:10:57;;;;;;;;;1.00;1.00;;;;;21.47;29.88;102339.25;6304935;22;45202;-73
2023/05/24 02:13:22;;;;;;;;;1.00;1.00;;;;;21.40;29.89;102329.25;6305238;22;46027;-74
2023/05/24 02:15:48;;;;;;;;;1.67;0.00;;;;;21.35;29.95;102325.31;6305263;22;45217;-74
2023/05/24 02:18:17;;;;;;;;;0.67;0.67;;;;;21.44;30.15;102344.84;6305022;22;45293;-73
2023/05/24 02:20:42;;;;;;;;;0.33;0.00;;;;;21.32;30.13;102320.31;6304983;22;45405;-73
2023/05/24 02:23:08;;;;;;;;;3.00;0.00;;;;;21.35;30.34;102331.47;6304610;22;47446;-73
2023/05/24 02:25:33;;;;;;;;;0.00;0.00;;;;;21.38;30.17;102336.50;6305291;22;45300;-73
2023/05/24 02:27:58;;;;;;;;;0.67;0.00;;;;;21.39;30.46;102337.34;6305526;22;45219;-73
2023/05/24 02:30:24;;;;;;;;;2.00;1.00;;;;;21.38;29.97;102340.94;6303376;22;45290;-73
2023/05/24 02:32:49;;;;;;;;;2.00;1.00;;;;;21.37;30.56;102337.44;6304183;22;46377;-73
2023/05/24 02:35:15;;;;;;;;;3.67;1.00;;;;;21.35;30.61;102342.06;6305212;22;45224;-73
2023/05/24 02:37:40;;;;;;;;;0.67;0.67;;;;;21.21;30.48;102318.66;6305023;22;45544;-73
2023/05/24 02:40:06;;;;;;;;;2.00;1.00;;;;;21.29;30.94;102339.94;6304824;22;45399;-73
2023/05/24 02:42:32;;;;;;;;;1.00;0.00;;;;;21.31;30.35;102343.31;6304585;22;46905;-74
2023/05/24 02:44:57;;;;;;;;;1.00;1.00;;;;;21.28;30.34;102351.53;6304782;22;45236;-74
2023/05/24 02:47:22;;;;;;;;;1.00;0.00;;;;;21.26;30.57;102349.00;6304476;22;45232;-73
2023/05/24 02:49:48;;;;;;;;;4.00;0.00;;;;;21.12;30.67;102326.44;6305364;22;45197;-73
2023/05/24 02:52:14;;;;;;;;;0.33;0.33;;;;;21.20;30.16;102338.16;6304807;22;45933;-73
2023/05/24 02:54:40;;;;;;;;;3.67;1.00;;;;;21.20;30.32;102331.06;6304765;22;45296;-73
2023/05/24 02:57:05;;;;;;;;;2.00;0.67;;;;;21.22;30.44;102337.03;6305132;22;45285;-73
2023/05/24 02:59:32;;;;;;;;;3.00;1.00;;;;;21.13;30.23;102324.63;6304656;22;45407;-73
2023/05/24 03:01:57;;;;;;;;;3.00;0.00;;;;;21.19;30.31;102339.94;6304289;22;46297;-73
2023/05/24 03:04:22;;;;;;;;;1.00;1.00;;;;;21.17;30.23;102340.09;6304442;22;45324;-73
2023/05/24 03:06:48;;;;;;;;;0.00;0.00;;;;;21.13;30.65;102329.94;6303335;22;45325;-74
2023/05/24 03:09:15;;;;;;;;;1.67;1.00;;;;;21.13;30.23;102330.75;6304903;22;45294;-73
2023/05/24 03:11:41;;;;;;;;;2.00;1.00;;;;;21.03;30.48;102314.03;6304699;22;47109;-73
2023/05/24 03:14:08;;;;;;;;;1.00;1.00;;;;;21.00;30.44;102309.81;6304869;22;45282;-73
2023/05/24 03:16:34;;;;;;;;;0.00;0.00;;;;;21.08;30.18;102321.56;6304377;22;45197;-74
2023/05/24 03:18:59;;;;;;;;;0.67;0.00;;;;;21.02;30.45;102317.66;6304724;22;45166;-73
2023/05/24 03:21:25;;;;;;;;;0.00;0.00;;;;;21.09;30.59;102320.59;6305043;22;45528;-73
2023/05/24 03:23:50;;;;;;;;;2.00;1.00;;;;;21.02;30.71;102313.22;6304871;22;45228;-74
2023/05/24 03:26:17;;;;;;;;;0.00;0.00;;;;;21.04;30.98;102321.00;6303690;22;45351;-73
2023/05/24 03:28:43;;;;;;;;;0.00;0.00;;;;;21.04;30.43;102321.84;6304733;22;45375;-73
2023/05/24 03:31:08;;;;;;;;;1.00;0.33;;;;;20.95;30.77;102307.56;6304363;22;45217;-73
2023/05/24 03:33:34;;;;;;;;;0.33;0.33;;;;;21.01;30.89;102321.22;6304468;22;45230;-73
2023/05/24 03:35:59;;;;;;;;;2.00;0.67;;;;;21.06;30.71;102324.34;6304721;22;45238;-73
2023/05/24 03:38:25;;;;;;;;;1.00;1.00;;;;;21.06;30.59;102326.97;6304549;22;45408;-73
2023/05/24 03:40:50;;;;;;;;;1.00;1.00;;;;;21.02;30.90;102312.38;6304453;22;46775;-74
2023/05/24 03:43:16;;;;;;;;;1.67;1.00;;;;;21.05;30.46;102320.84;6304834;22;45189;-73
2023/05/24 03:45:41;;;;;;;;;1.00;1.00;;;;;20.99;30.76;102318.75;6304319;22;45575;-73
2023/05/24 03:48:07;;;;;;;;;2.00;0.67;;;;;21.02;30.77;102317.66;6304798;22;45276;-73
2023/05/24 03:50:32;;;;;;;;;1.00;1.00;;;;;21.02;30.90;102315.84;6304236;22;46863;-74
2023/05/24 03:52:59;;;;;;;;;1.00;1.00;;;;;21.03;31.01;102321.97;6304145;22;45509;-74
2023/05/24 03:55:24;;;;;;;;;1.00;1.00;;;;;20.92;30.57;102310.50;6304980;22;45280;-73
2023/05/24 03:57:50;;;;;;;;;1.67;0.67;;;;;20.98;30.81;102319.69;6304485;22;45465;-73
2023/05/24 04:00:15;;;;;;;;;1.00;0.00;;;;;20.92;31.25;102320.25;6304460;22;45339;-73
2023/05/24 04:02:40;;;;;;;;;3.00;0.00;;;;;20.93;31.26;102324.56;6304361;22;45299;-73
2023/05/24 04:05:08;;;;;;;;;1.00;1.00;;;;;20.94;31.05;102332.38;6304647;22;45271;-73
2023/05/24 04:07:35;;;;;;;;;1.67;0.00;;;;;20.93;30.97;102325.41;6304560;22;45439;-73
2023/05/24 04:10:02;;;;;;;;;1.00;1.00;;;;;20.92;30.98;102325.56;6304087;22;46198;-73
2023/05/24 04:12:27;;;;;;;;;1.33;0.33;;;;;20.80;30.94;102314.22;6304144;22;45252;-74
2023/05/24 04:14:53;;;;;;;;;0.00;0.00;;;;;20.89;31.00;102331.13;6302202;22;45187;-73
2023/05/24 04:17:18;;;;;;;;;2.00;0.00;;;;;20.74;31.64;102305.88;6304779;22;45169;-73
2023/05/24 04:19:45;;;;;;;;;0.00;0.00;;;;;20.84;31.53;102328.88;6304079;22;47167;-74
2023/05/24 04:22:11;;;;;;;;;1.00;0.00;;;;;20.78;31.30;102329.41;6304239;22;45298;-73
2023/05/24 04:24:36;;;;;;;;;4.00;1.00;;;;;20.81;31.38;102348.50;6304087;22;45614;-73
2023/05/24 04:27:01;;;;;;;;;1.00;1.00;;;;;20.80;31.59;102344.19;6304223;22;45469;-73
2023/05/24 04:29:27;;;;;;;;;2.00;0.00;;;;;20.82;31.76;102347.50;6304273;22;45967;-73
2023/05/24 04:31:52;;;;;;;;;2.00;2.00;;;;;20.51;31.52;102297.31;6303486;22;45307;-73
2023/05/24 04:34:21;;;;;;;;;0.75;0.25;;;;;20.87;31.64;102346.28;6304276;22;45291;-73
2023/05/24 04:36:48;;;;;;;;;4.33;0.33;;;;;20.81;31.31;102339.72;6304357;22;45373;-73
2023/05/24 04:39:13;;;;;;;;;2.33;1.00;;;;;20.86;31.55;102356.03;6303825;22;46933;-73
2023/05/24 04:41:39;;;;;;;;;2.33;1.00;;;;;20.77;31.54;102335.66;6303764;22;45464;-74
2023/05/24 04:44:04;;;;;;;;;2.00;2.00;;;;;20.71;31.96;102335.22;6304248;22;45302;-73
2023/05/24 04:46:30;;;;;;;;;1.67;1.00;;;;;20.67;31.75;102327.69;6304299;22;45239;-73
2023/05/24 04:48:55;;;;;;;;;1.33;1.33;;;;;20.84;31.85;102353.50;6304163;22;45530;-73
2023/05/24 04:51:21;;;;;;;;;0.67;0.67;;;;;20.83;31.93;102351.00;6304054;22;45332;-73
2023/05/24 04:53:46;;;;;;;;;1.00;1.00;;;;;20.73;31.62;102337.75;6304085;22;45351;-73
2023/05/24 04:56:13;;;;;;;;;2.00;1.00;;;;;20.85;31.71;102347.25;6303640;22;45429;-73
2023/05/24 04:58:39;;;;;;;;;2.00;1.00;;;;;20.87;31.77;102349.75;6303837;22;46298;-73
2023/05/24 05:01:05;;;;;;;;;0.00;0.00;;;;;20.89;32.07;102347.00;6303676;22;45394;-73
2023/05/24 05:03:30;;;;;;;;;2.00;2.00;;;;;20.77;31.74;102327.72;6304004;22;45259;-73
2023/05/24 05:05:55;;;;;;;;;3.00;2.00;;;;;20.92;31.80;102354.66;6303861;22;45181;-73
2023/05/24 05:08:21;;;;;;;;;1.00;1.00;;;;;20.78;32.04;102332.06;6303637;22;46944;-73
2023/05/24 05:10:47;;;;;;;;;1.00;0.00;;;;;20.88;31.67;102346.16;6303420;22;45287;-73
2023/05/24 05:13:12;;;;;;;;;5.00;1.00;;;;;20.96;31.97;102358.69;6303959;22;45231;-73
2023/05/24 05:15:37;;;;;;;;;1.00;0.33;;;;;20.88;31.85;102346.16;6304292;22;45190;-73
2023/05/24 05:18:03;;;;;;;;;1.00;1.00;;;;;20.91;31.61;102351.16;6304035;22;46155;-73
2023/05/24 05:20:28;;;;;;;;;4.00;1.00;;;;;21.00;32.16;102370.66;6303456;22;45110;-73
2023/05/24 05:22:53;;;;;;;;;2.00;0.33;;;;;21.01;31.85;102363.56;6303999;22;45141;-76
2023/05/24 05:25:19;;;;;;;;;1.00;1.00;;;;;21.01;31.84;102360.94;6303256;22;45268;-72
2023/05/24 05:27:44;;;;;;;;;1.00;1.00;;;;;21.06;31.90;102322.53;6301874;22;46719;-73
2023/05/24 05:30:10;;;;;;;;;1.67;1.67;;;;;21.13;32.28;102324.63;6303263;22;45303;-73
2023/05/24 05:32:36;;;;;;;;;1.00;1.00;;;;;21.11;31.76;102305.41;6302924;22;45291;-74
2023/05/24 05:35:01;;;;;;;;;4.00;1.00;;;;;21.42;32.43;102339.69;6303168;22;45217;-75
2023/05/24 05:37:28;;;;;;;;;1.67;0.67;;;;;21.51;32.44;102320.31;6303633;22;45303;-74
2023/05/24 05:39:53;;;;;;;;;2.67;1.00;;;;;21.70;32.72;102321.25;6302021;22;45492;-75
2023/05/24 05:42:18;;;;;;;;;1.00;1.00;;;;;21.95;32.97;102329.63;6302807;22;45282;-74
2023/05/24 05:44:44;;;;;;;;;2.33;1.00;;;;;21.93;32.63;102297.13;6303722;22;45163;-74
2023/05/24 05:47:09;;;;;;;;;1.67;1.00;;;;;22.36;33.11;102333.78;6303343;22;46493;-75
2023/05/24 05:49:35;;;;;;;;;0.33;0.33;;;;;22.57;33.45;102329.22;6302269;22;45238;-75
2023/05/24 05:52:01;;;;;;;;;0.33;0.33;;;;;22.94;33.12;102341.63;6304812;22;45295;-76
2023/05/24 05:54:27;;;;;;;;;4.00;1.00;;;;;23.23;32.90;102378.72;6304746;22;45373;-76
2023/05/24 05:56:52;;;;;;;;;2.33;2.33;;;;;23.40;31.86;102379.72;6305270;22;45995;-76
2023/05/24 05:59:18;;;;;;;;;2.67;0.67;;;;;23.51;31.37;102379.53;6305533;22;45324;-76
2023/05/24 06:01:46;;;;;;;;;4.33;1.00;;;;;23.58;31.17;102374.41;6305497;22;45271;-79
2023/05/24 06:04:12;;;;;;;;;2.00;1.00;;;;;23.42;31.10;102351.16;6305744;22;45276;-78
2023/05/24 06:06:37;;;;;;;;;3.00;1.00;;;;;23.39;30.60;102336.38;6305347;22;46068;-76
2023/05/24 06:09:03;;;;;;;;;1.00;1.00;;;;;23.78;30.27;102376.06;6305250;22;46992;-79
2023/05/24 06:11:28;;;;;;;;;3.00;2.00;;;;;23.92;30.32;102378.16;6304135;22;45504;-75
2023/05/24 06:13:53;;;;;;;;;1.33;1.33;;;;;24.00;29.90;102366.75;6300969;22;45446;-75
2023/05/24 06:16:20;;;;;;;;;4.67;2.00;;;;;24.11;29.78;102378.94;6304801;22;46089;-76
2023/05/24 06:18:46;;;;;;;;;3.33;1.00;;;;;24.04;29.62;102373.44;6304475;22;45459;-75
2023/05/24 06:21:12;;;;;;;;;0.00;0.00;;;;;24.09;29.75;102372.13;6304590;22;45244;-75
2023/05/24 06:23:38;;;;;;;;;1.00;1.00;;;;;24.10;29.21;102377.25;6304123;22;45347;-76
2023/05/24 06:26:03;;;;;;;;;2.67;1.00;;;;;24.04;29.10;102386.72;6304935;22;45221;-76
2023/05/24 06:28:28;;;;;;;;;1.67;1.33;;;;;23.92;29.71;102378.16;6304463;22;45240;-75
2023/05/24 06:30:54;;;;;;;;;1.00;1.00;;;;;23.78;29.24;102376.06;6305209;22;45280;-75
2023/05/24 06:33:21;;;;;;;;;2.00;1.00;;;;;23.79;29.31;102380.38;6304486;22;45418;-75
2023/05/24 06:35:46;;;;;;;;;0.67;0.67;;;;;23.77;29.76;102385.03;6304461;22;46167;-74
2023/05/24 06:38:11;;;;;;;;;2.33;0.67;;;;;23.57;29.35;102358.66;6303915;22;45341;-75
2023/05/24 06:40:37;;;;;;;;;2.33;1.00;;;;;23.68;29.81;102381.47;6305006;22;45266;-75
2023/05/24 06:43:03;;;;;;;;;3.67;2.00;;;;;23.67;29.97;102371.84;6304561;22;45474;-75
2023/05/24 06:45:28;;;;;;;;;0.67;0.67;;;;;23.65;29.46;102376.47;6304445;22;47167;-76
2023/05/24 06:47:54;;;;;;;;;4.00;1.00;;;;;23.63;29.42;102373.94;6304315;22;45422;-75
2023/05/24 06:50:19;;;;;;;;;2.00;2.00;;;;;23.60;29.72;102372.44;6304477;22;45127;-76
2023/05/24 06:52:44;;;;;;;;;0.67;0.67;;;;;23.57;29.54;102370.09;6304393;22;47330;-76
2023/05/24 06:55:10;;;;;;;;;1.67;1.67;;;;;23.59;29.42;102372.59;6304464;22;45147;-75
2023/05/24 06:57:35;;;;;;;;;3.00;0.00;;;;;23.39;29.47;102354.97;6304465;22;45228;-77
2023/05/24 07:00:01;;;;;;;;;1.00;1.00;;;;;23.16;29.88;102315.59;6304415;22;45288;-75
2023/05/24 07:02:27;;;;;;;;;1.00;1.00;;;;;23.31;29.53;102325.69;6304328;22;45373;-75
2023/05/24 07:04:52;;;;;;;;;1.67;1.33;;;;;23.51;29.68;102368.91;6304565;22;45637;-74
2023/05/24 07:07:19;;;;;;;;;0.33;0.33;;;;;23.53;29.66;102374.03;6304379;22;45330;-75
2023/05/24 07:09:44;;;;;;;;;1.00;1.00;;;;;23.36;29.31;102343.81;6304697;22;45337;-75
2023/05/24 07:12:10;;;;;;;;;2.00;2.00;;;;;23.27;29.94;102334.94;6304382;22;45502;-75
2023/05/24 07:14:35;;;;;;;;;0.67;0.67;;;;;23.47;29.88;102362.16;6304476;22;46339;-74
2023/05/24 07:17:01;;;;;;;;;0.33;0.33;;;;;23.44;29.49;102359.84;6304121;22;50806;-75
2023/05/24 07:19:28;;;;;;;;;3.00;1.00;;;;;23.50;29.84;102367.22;6304334;22;45298;-75
2023/05/24 07:21:56;;;;;;;;;0.00;0.00;;;;;23.56;29.38;102372.91;6303829;22;45319;-75
2023/05/24 07:24:22;;;;;;;;;0.00;0.00;;;;;23.56;29.55;102378.22;6304046;22;46277;-75
2023/05/24 07:26:49;;;;;;;;;2.67;1.33;;;;;23.55;29.29;102380.03;6304477;22;45292;-75
2023/05/24 07:29:14;;;;;;;;;1.00;1.00;;;;;23.56;29.83;102386.19;6304398;22;45298;-75
2023/05/24 07:31:40;;;;;;;;;4.00;1.00;;;;;23.56;29.71;102378.22;6304348;22;45352;-75
2023/05/24 07:34:05;;;;;;;;;1.00;1.00;;;;;23.52;29.44;102378.50;6302421;22;48064;-75
2023/05/24 07:36:32;;;;;;;;;2.00;2.00;;;;;23.57;29.42;102387.88;6304132;22;45281;-74
2023/05/24 07:38:59;;;;;;;;;0.00;0.00;;;;;23.49;29.43;102370.00;6304215;22;45315;-75
2023/05/24 07:41:26;;;;;;;;;0.00;0.00;;;;;23.55;29.24;102388.00;6304303;22;45384;-73
2023/05/24 07:43:55;;;;;;;;;1.00;1.00;;;;;23.58;29.13;102384.22;6303874;22;46269;-76
2023/05/24 07:46:21;;;;;;;;;1.00;1.00;;;;;23.57;29.20;102382.56;6304232;22;45283;-76
2023/05/24 07:48:46;;;;;;;;;3.00;1.00;;;;;23.30;28.92;102334.66;6304487;22;45276;-77
2023/05/24 07:51:12;;;;;;;;;1.33;1.00;;;;;23.54;29.15;102381.03;6302322;22;45329;-76
2023/05/24 07:53:37;;;;;;;;;3.00;1.00;;;;;23.55;29.05;102376.56;6304397;22;45397;-76
2023/05/24 07:56:03;;;;;;;;;3.00;1.00;;;;;23.56;29.50;102380.88;6304114;22;45307;-76
2023/05/24 07:58:28;;;;;;;;;1.00;1.00;;;;;23.46;28.82;102365.84;6304668;22;45434;-76
2023/05/24 08:00:54;;;;;;;;;3.33;0.00;;;;;23.49;28.79;102364.69;6304847;22;45357;-77
2023/05/24 08:03:19;;;;;;;;;2.33;1.33;;;;;23.39;28.66;102348.84;6305369;22;45274;-76
2023/05/24 08:05:44;;;;;;;;;1.00;1.00;;;;;23.58;28.63;102387.69;6303685;22;45353;-76
2023/05/24 08:08:10;;;;;;;;;0.00;0.00;;;;;23.57;28.62;102382.56;6304443;22;45275;-76
2023/05/24 08:10:35;;;;;;;;;0.33;0.33;;;;;23.58;28.42;102382.38;6304752;22;45474;-76
2023/05/24 08:13:02;;;;;;;;;0.00;0.00;;;;;23.48;28.35;102363.00;6304040;22;46115;-75
2023/05/24 08:15:27;;;;;;;;;4.33;2.00;;;;;23.35;28.43;102340.34;6304580;22;45234;-76
2023/05/24 08:17:53;;;;;;;;;0.00;0.00;;;;;23.54;28.16;102372.22;6304728;22;45389;-75
2023/05/24 08:20:19;;;;;;;;;2.00;1.00;;;;;23.56;28.45;102383.53;6303955;22;45226;-75
2023/05/24 08:22:46;;;;;;;;;2.00;1.00;;;;;23.61;28.35;102387.41;6303834;22;46260;-76
2023/05/24 08:25:12;;;;;;;;;0.00;0.00;;;;;23.62;28.32;102383.78;6303717;22;45292;-77
2023/05/24 08:27:38;;;;;;;;;1.00;1.00;;;;;23.60;28.33;102374.28;6303947;22;45308;-76
2023/05/24 08:30:03;;;;;;;;;0.67;0.67;;;;;23.63;28.35;102380.09;6304436;22;45277;-76
2023/05/24 08:32:29;;;;;;;;;1.00;1.00;;;;;23.63;28.38;102372.13;6304068;22;45190;-75
2023/05/24 08:34:55;;;;;;;;;1.00;0.00;;;;;23.71;28.09;102379.34;6303282;22;45154;-75
2023/05/24 08:37:21;;;;;;;;;3.33;1.00;;;;;23.63;27.81;102361.50;6304193;22;45296;-74
2023/05/24 08:39:47;;;;;;;;;3.00;0.00;;;;;23.75;27.73;102369.25;6303829;22;45142;-75
2023/05/24 08:42:13;;;;;;;;;0.00;0.00;;;;;23.78;27.72;102384.88;6303402;22;46873;-76
2023/05/24 08:44:47;;;;;;;;;1.00;1.00;;;;;23.80;27.77;102379.41;6303801;22;45285;-76
2023/05/24 08:47:13;;;;;;;;;1.67;0.67;;;;;23.83;27.29;102376.44;6304255;22;45229;-75
2023/05/24 08:49:40;;;;;;;;;1.00;1.00;;;;;23.85;27.25;102375.28;6303422;22;45457;-75
2023/05/24 08:52:10;;;;;;;;;2.00;0.33;;;;;23.84;27.31;102368.31;6303526;22;45326;-75
2023/05/24 08:54:36;;;;;;;;;1.00;1.00;;;;;23.90;27.45;102366.00;6303597;22;45294;-76
2023/05/24 08:57:02;;;;;;;;;2.33;1.00;;;;;23.71;27.03;102342.13;6303970;22;45271;-76
2023/05/24 08:59:27;;;;;;;;;1.33;0.00;;;;;23.78;26.53;102363.63;6303968;22;45098;-76
2023/05/24 09:01:53;;;;;;;;;1.00;1.00;;;;;23.92;26.60;102385.28;6303345;22;45208;-75
2023/05/24 09:04:21;;;;;;;;;1.00;0.00;;;;;23.94;26.37;102370.03;6303533;22;45285;-75
2023/05/24 09:06:47;;;;;;;;;3.00;2.00;;;;;23.97;26.38;102367.03;6304192;22;45280;-75
2023/05/24 09:09:17;;;;;;;;;0.33;0.33;;;;;24.00;25.89;102372.06;6303421;22;45343;-75
2023/05/24 09:11:44;;;;;;;;;2.00;0.00;;;;;24.02;26.13;102369.25;6303857;22;45283;-76
2023/05/24 09:14:10;;;;;;;;;0.00;0.00;;;;;23.99;26.02;102365.09;6303312;22;45225;-75
2023/05/24 09:16:35;;;;;;;;;2.67;1.00;;;;;23.80;25.90;102332.41;6303896;22;45282;-75
2023/05/24 09:19:01;;;;;;;;;0.67;0.67;;;;;23.94;26.00;102351.44;6304490;22;45353;-75
2023/05/24 09:21:28;;;;;;;;;1.00;1.00;;;;;24.01;25.75;102355.13;6304697;22;47297;-75
2023/05/24 09:23:54;;;;;;;;;1.00;0.00;;;;;24.05;25.81;102363.59;6304767;22;45237;-75
2023/05/24 09:26:20;;;;;;;;;0.00;0.00;;;;;24.04;25.23;102357.47;6304979;22;45308;-75
2023/05/24 09:28:46;;;;;;;;;0.33;0.33;;;;;24.05;25.43;102358.28;6305399;22;45399;-76
2023/05/24 09:31:12;;;;;;;;;0.00;0.00;;;;;24.05;25.56;102359.13;6304747;22;46031;-75
2023/05/24 09:33:38;;;;;;;;;1.00;0.67;;;;;24.08;25.25;102365.97;6304075;22;45237;-75
2023/05/24 09:36:05;;;;;;;;;0.00;0.00;;;;;24.09;24.94;102359.66;6305018;22;45265;-75
2023/05/24 09:38:31;;;;;;;;;0.00;0.00;;;;;23.87;25.05;102327.28;6304770;22;45284;-76
2023/05/24 09:41:01;;;;;;;;;1.00;1.00;;;;;23.88;24.96;102321.00;6304926;22;45312;-75
2023/05/24 09:43:29;;;;;;;;;3.00;1.67;;;;;23.96;24.73;102325.53;6304800;22;45259;-75
2023/05/24 09:45:56;;;;;;;;;2.33;0.00;;;;;24.12;24.82;102354.03;6305034;22;45316;-75
2023/05/24 09:48:23;;;;;;;;;1.33;1.33;;;;;24.13;24.40;102361.00;6304426;22;45429;-75
2023/05/24 09:51:05;;;;;;;;;0.00;0.00;;;;;24.12;24.41;102367.31;6305061;22;46306;-74
2023/05/24 09:53:34;;;;;;;;;1.00;1.00;;;;;24.13;24.29;102352.19;6304620;22;45237;-75
2023/05/24 09:56:03;;;;;;;;;0.67;0.67;;;;;24.13;24.23;102360.16;6304561;22;45225;-75
2023/05/24 09:58:34;;;;;;;;;0.67;0.00;;;;;23.95;24.10;102329.16;6304679;22;45161;-76
2023/05/24 10:01:07;;;;;;;;;0.00;0.00;;;;;24.02;23.80;102338.16;6303967;22;46302;-76
2023/05/24 10:03:34;;;;;;;;;0.33;0.00;;;;;23.73;23.90;102280.88;6304560;22;45291;-76
2023/05/24 10:06:01;;;;;;;;;0.00;0.00;;;;;23.94;23.72;102307.06;6304783;22;45244;-76
2023/05/24 10:08:26;;;;;;;;;2.00;1.00;;;;;24.13;23.60;102347.72;6304662;22;45474;-75
2023/05/24 10:10:52;;;;;;;;;0.00;0.00;;;;;24.12;23.69;102338.09;6304815;22;45274;-76
2023/05/24 10:13:18;;;;;;;;;0.00;0.00;;;;;24.11;23.25;102349.69;6305152;22;45167;-75
2023/05/24 10:15:43;;;;;;;;;1.00;1.00;;;;;23.98;23.66;102331.50;6304178;22;45226;-76
2023/05/24 10:18:09;;;;;;;;;0.00;0.00;;;;;24.05;23.28;102329.88;6304838;22;45507;-75
2023/05/24 10:20:35;;;;;;;;;0.00;0.00;;;;;24.11;23.70;102324.94;6304621;22;45491;-75
2023/05/24 10:23:06;;;;;;;;;0.67;0.67;;;;;24.11;23.30;102325.75;6304872;22;45356;-75
2023/05/24 10:25:34;;;;;;;;;0.00;0.00;;;;;24.07;23.30;102324.44;6305319;22;45323;-75
2023/05/24 10:28:03;;;;;;;;;2.00;0.00;;;;;24.11;23.15;102333.75;6304452;22;45366;-74
2023/05/24 10:30:53;;;;;;;;;0.00;0.00;;;;;24.11;23.15;102320.44;6303554;22;47121;-75
2023/05/24 10:33:22;;;;;;;;;0.00;0.00;;;;;24.02;23.15;102314.25;6304862;22;45205;-75
2023/05/24 10:35:48;;;;;;;;;0.33;0.33;;;;;24.07;23.09;102321.78;6304568;22;45348;-76
2023/05/24 10:38:13;;;;;;;;;1.00;1.00;;;;;24.06;23.18;102322.75;6304522;22;45430;-76
2023/05/24 10:40:42;;;;;;;;;1.00;1.00;;;;;23.93;23.17;102305.41;6304722;22;45614;-75
2023/05/24 10:43:09;;;;;;;;;1.33;1.00;;;;;24.04;22.95;102317.59;6303811;22;45291;-74
2023/05/24 10:45:40;;;;;;;;;2.00;2.00;;;;;24.04;23.22;102322.06;6304168;22;45399;-76
2023/05/24 10:48:12;;;;;;;;;3.00;1.00;;;;;24.04;23.03;102311.44;6302968;22;45420;-76
2023/05/24 10:50:38;;;;;;;;;0.33;0.33;;;;;24.01;23.33;102322.38;6304104;22;46200;-75
2023/05/24 10:53:14;;;;;;;;;1.00;1.00;;;;;23.87;23.11;102287.41;6304811;22;45719;-76
2023/05/24 10:55:59;;;;;;;;;0.33;0.33;;;;;24.04;23.18;102312.28;6304530;22;45221;-76
2023/05/24 10:58:31;;;;;;;;;0.33;0.33;;;;;24.05;23.46;102318.41;6304569;22;45225;-76
2023/05/24 11:00:57;;;;;;;;;3.50;1.00;;;;;24.01;22.92;102303.78;6304602;22;47237;-75
2023/05/24 11:03:23;;;;;;;;;1.00;1.00;;;;;23.78;23.25;102278.59;6304613;22;45406;-78
2023/05/24 11:05:48;;;;;;;;;0.67;0.67;;;;;24.05;22.96;102326.38;6304717;22;45344;-75
2023/05/24 11:08:20;;;;;;;;;0.00;0.00;;;;;23.89;23.24;102293.41;6305295;22;45486;-75
2023/05/24 11:10:46;;;;;;;;;0.67;0.67;;;;;24.06;22.90;102317.44;6304912;22;46152;-76
2023/05/24 11:13:12;;;;;;;;;1.00;0.00;;;;;24.03;22.98;102312.44;6303807;22;45339;-76
2023/05/24 11:15:38;;;;;;;;;1.00;1.00;;;;;23.91;22.93;102285.28;6304303;22;45252;-75
2023/05/24 11:18:07;;;;;;;;;1.00;1.00;;;;;24.05;22.98;102305.97;6304669;22;45297;-76
2023/05/24 11:20:33;;;;;;;;;1.00;1.00;;;;;24.05;23.50;102310.44;6304492;22;46329;-76
2023/05/24 11:23:02;;;;;;;;;2.67;1.67;;;;;24.06;23.38;102310.28;6304369;22;45235;-75